Observations for STORNOWAY, United Kingdom (EGPO)

EGPO 211750Z 19021KT 6000 RADZ SCT003 BKN006 05/04 Q0989
EGPO 211720Z 19022G32KT 7000 -RADZ SCT003 BKN008 05/04 Q0990
EGPO 211650Z 16020KT 7000 -DZ SCT003 BKN007 04/04 Q0990 
EGPO 211620Z 15018KT 6000 -DZ SCT003 BKN007 03/03 Q0991 
EGPO 211550Z 14018KT 4000 -DZ BKN003 BKN007 03/03 Q0992 
EGPO 211520Z 12017KT 4000 -DZ SCT003 BKN007 BKN013 03/02 Q0992  
EGPO 211450Z 13019KT 3500 -DZSN BKN007 BKN013 02/02 Q0993   
EGPO 211420Z 13017KT 8000 -RASN SCT009 BKN013 OVC032 02/01 Q0994
EGPO 211350Z 13015KT 9000 -RASN SCT010 BKN016 OVC032 02/00 Q0996
EGPO 211320Z 14018KT 7000 -SN SCT018 BKN027 OVC041 02/00 Q0997  
EGPO 211250Z 15018KT 9999 -RASN SCT023 BKN027 BKN038 03/M02 Q0998   
EGPO 211220Z 15018KT 9999 BKN035 OVC049 04/M02 Q0999
EGPO 211150Z 13016KT 9999 SCT035 OVC049 04/M03 Q1000
EGPO 211120Z AUTO 13015KT 9999 NCD 04/M03 Q1001 
EGPO 211050Z AUTO 14016KT 9999 NCD 04/M03 Q1002 
EGPO 211020Z AUTO 13016KT 9999 NCD 04/M03 Q1002 
EGPO 210950Z 15015KT 120V190 CAVOK 04/M01 Q1003 
EGPO 210920Z 14014KT 100V160 CAVOK 04/M01 Q1004 
EGPO 210850Z 13014KT CAVOK 04/M02 Q1005 
EGPO 210820Z AUTO 13012KT 9999 NCD 04/M01 Q1005 
EGPO 210750Z AUTO 14014KT 9999 NCD 04/M01 Q1006 
EGPO 210720Z AUTO 13013KT 9999 NCD 04/M01 Q1006 
EGPO 210650Z AUTO 12010KT 9999 NCD 03/M01 Q1006 
EGPO 210620Z AUTO 14013KT 9999 NCD 04/M01 Q1006 
EGPO 210550Z AUTO 15013KT 9999 NCD 04/M00 Q1006 
EGPO 210520Z AUTO 16012KT 9999 SCT021/// 03/01 Q1007
EGPO 210450Z AUTO 00000KT 9999 FEW027/// M04/M05 Q1008  
EGPO 210420Z AUTO 00000KT 9999 FEW026/// M03/M05 Q1008  
EGPO 210350Z AUTO 00000KT 9999 FEW028/// M04/M05 Q1008  
EGPO 210320Z AUTO 00000KT 9999 NCD M04/M05 Q1009
EGPO 210250Z AUTO 00000KT 9999 NCD M05/M06 Q1009
EGPO 210220Z AUTO 00000KT 9999 NCD M04/M05 Q1009
EGPO 210150Z AUTO 00000KT 9999 NCD M03/M04 Q1009
EGPO 210120Z 00000KT 9999 FEW007 M04/M06 Q1009 R36/750199   
EGPO 210050Z 00000KT 9999 FEW007 M03/M04 Q1009 R36/750199   
EGPO 210020Z 00000KT 9999 FEW007 M05/M06 Q1009 R36/750299   
EGPO 202350Z 00000KT 9999 FEW007 M03/M05 Q1008 R18/750199   
EGPO 202320Z 00000KT 9999 FEW007 M03/M04 Q1008 R36/750199   
EGPO 202250Z 00000KT 9999 FEW007 M03/M03 Q1008 R36/750199   
EGPO 202220Z 00000KT 9999 FEW012CB M03/M04 Q1008 R18/750299 
EGPO 202150Z 00000KT 9999 FEW008 FEW012CB M03/M04 Q1008 R18/750299  
EGPO 202120Z 25003KT 9999 FEW008 FEW012CB M04/M05 Q1008 R18/750299  
EGPO 202050Z VRB02KT 9999 VCSH FEW008 FEW012CB M04/M05 Q1007 R18/750199 
EGPO 202020Z 00000KT 9999 VCSH FEW008 FEW012CB M01/M03 Q1007
EGPO 201950Z 00000KT 9999 FEW008 FEW012CB M03/M04 Q1007 
EGPO 201920Z 00000KT 9999 FEW008 FEW012CB M01/M02 Q1007 
EGPO 201850Z 25005KT 9999 VCSH FEW008 FEW012CB M01/M02 Q1006
EGPO 201820Z VRB02KT 9999 -SHRASN FEW008 BKN012CB M01/M02 Q1006 
EGPO 201750Z 00000KT 9999 FEW016CB M04/M06 Q1005 R18/750299 
EGPO 201720Z 00000KT 9999 FEW016CB M03/M04 Q1005 R18/750299